Terminal Aerodrome Forecast
Issued by NWS

Home | Current Version | Previous Version | Text Only | Print | Product List | Glossary On
Versions: 1 2 3 4 5 6 7 8 9 10 11 12 13 14 15 16 17 18 19 20 21 22 23 24 25 26 27 28 29 30 31 32 33 34 35 36 37 38 39 40 41 42 43 44 45 46
000
FTUS42 KRAH 260530
TAFRWI
TAF
KRWI 260530Z 2606/2706 05009KT 4SM -RA OVC004
      TEMPO 2606/2610 2SM RA BR OVC006
     FM261000 01015G28KT 3SM RA BR OVC009
      TEMPO 2610/2614 1 1/2SM +RA BR OVC004
     FM261400 01015G25KT 6SM -RA BR OVC012
     FM262000 31012G22KT P6SM OVC022
     FM270000 29006KT P6SM SCT022=

USA.gov is the U.S. government's official web portal to all federal, state and local government web resources and services.